createdAt,value
2022-11-22T00:00:10.329Z,8.70
2022-11-22T00:05:12.104Z,8.80
2022-11-22T00:10:15.210Z,8.70
2022-11-22T00:15:16.947Z,8.80
2022-11-22T00:20:18.842Z,8.80
2022-11-22T00:25:20.517Z,9.00
2022-11-22T00:30:22.243Z,9.00
2022-11-22T00:35:23.898Z,8.90
2022-11-22T00:40:25.570Z,8.90
2022-11-22T00:45:27.288Z,8.90
2022-11-22T00:50:28.986Z,8.80
2022-11-22T00:55:30.697Z,9.00
2022-11-22T01:00:32.591Z,9.00
2022-11-22T01:05:34.325Z,9.00
2022-11-22T01:10:36.993Z,9.10
2022-11-22T01:15:38.958Z,8.90
2022-11-22T01:20:41.386Z,9.00
2022-11-22T01:25:44.205Z,9.10
2022-11-22T01:30:46.257Z,9.00
2022-11-22T01:35:48.157Z,8.90
2022-11-22T01:40:49.833Z,8.80
2022-11-22T01:45:58.616Z,8.90
2022-11-22T01:51:14.947Z,9.00
2022-11-22T01:56:19.449Z,8.80
2022-11-22T02:01:21.317Z,8.80
2022-11-22T02:06:26.270Z,8.60
2022-11-22T02:11:33.778Z,8.60
2022-11-22T02:16:37.067Z,8.60
2022-11-22T02:21:38.892Z,8.60
2022-11-22T02:26:40.881Z,8.60
2022-11-22T02:31:45.340Z,8.50
2022-11-22T02:36:53.015Z,8.60
2022-11-22T02:41:56.756Z,8.70
2022-11-22T02:46:58.532Z,8.60
2022-11-22T02:52:00.324Z,8.80
2022-11-22T02:57:03.433Z,8.70
2022-11-22T03:02:05.272Z,8.80
2022-11-22T03:07:07.064Z,8.60
2022-11-22T03:12:08.877Z,8.90
2022-11-22T03:17:10.550Z,9.00
2022-11-22T03:22:12.968Z,9.10
2022-11-22T03:27:14.663Z,8.90
2022-11-22T03:32:16.339Z,8.90
2022-11-22T03:37:18.077Z,8.70
2022-11-22T03:42:22.143Z,8.80
2022-11-22T03:47:23.998Z,8.80
2022-11-22T03:52:25.719Z,8.70
2022-11-22T03:57:27.454Z,8.60
2022-11-22T04:02:29.172Z,8.50
2022-11-22T04:07:30.982Z,8.30
2022-11-22T04:12:32.781Z,8.30
2022-11-22T04:17:38.960Z,8.20
2022-11-22T04:22:40.663Z,8.10
2022-11-22T04:27:42.336Z,8.20
2022-11-22T04:32:44.031Z,8.20
2022-11-22T04:37:51.928Z,8.30
2022-11-22T04:42:53.698Z,8.20
2022-11-22T04:47:55.409Z,8.20
2022-11-22T04:52:58.034Z,8.30
2022-11-22T04:58:00.497Z,8.20
2022-11-22T05:03:02.815Z,8.30
2022-11-22T05:08:05.995Z,8.30
2022-11-22T05:13:07.698Z,8.30
2022-11-22T05:18:09.440Z,8.30
2022-11-22T05:23:11.616Z,8.40
2022-11-22T05:28:13.342Z,8.40
2022-11-22T05:33:15.124Z,8.30
2022-11-22T05:38:17.174Z,8.30
2022-11-22T05:43:18.898Z,8.30
2022-11-22T05:48:20.626Z,8.30
2022-11-22T05:53:22.305Z,8.30
2022-11-22T05:58:24.336Z,8.40
2022-11-22T06:03:25.999Z,8.50
2022-11-22T06:08:29.831Z,8.40
2022-11-22T06:13:39.891Z,8.30
2022-11-22T06:18:41.974Z,8.20
2022-11-22T06:23:43.731Z,8.30
2022-11-22T06:28:46.561Z,8.20
2022-11-22T06:33:48.818Z,8.30
2022-11-22T06:38:51.341Z,8.50
2022-11-22T06:43:54.355Z,8.60
2022-11-22T06:48:56.243Z,8.70
2022-11-22T06:53:58.818Z,8.80
2022-11-22T06:59:03.239Z,8.80
2022-11-22T07:04:05.706Z,8.80
2022-11-22T07:09:10.204Z,8.70
2022-11-22T07:14:11.941Z,8.70
2022-11-22T07:19:13.630Z,8.70
2022-11-22T07:24:15.476Z,8.70
2022-11-22T07:29:17.193Z,8.60
2022-11-22T07:34:18.897Z,8.60
2022-11-22T07:39:20.627Z,8.60
2022-11-22T07:44:22.338Z,8.50
2022-11-22T07:49:24.005Z,8.50
2022-11-22T07:54:25.911Z,8.40
2022-11-22T07:59:27.811Z,8.40
2022-11-22T08:04:29.612Z,8.40
2022-11-22T08:09:31.630Z,8.30
2022-11-22T08:14:33.577Z,8.30
2022-11-22T08:19:35.314Z,8.20
2022-11-22T08:24:37.112Z,8.10
2022-11-22T08:29:38.833Z,8.10
2022-11-22T08:34:46.763Z,8.10
2022-11-22T08:39:48.915Z,8.10
2022-11-22T08:44:50.632Z,8.10
2022-11-22T08:49:52.315Z,8.10
2022-11-22T08:54:53.992Z,8.20
2022-11-22T08:59:55.704Z,8.20
2022-11-22T09:04:57.408Z,8.20
2022-11-22T09:09:59.072Z,8.20
2022-11-22T09:15:00.784Z,8.30
2022-11-22T09:20:02.820Z,8.40
2022-11-22T09:25:06.285Z,8.50
2022-11-22T09:30:08.569Z,8.40
2022-11-22T09:35:10.500Z,8.50
2022-11-22T09:40:12.691Z,8.60
2022-11-22T09:45:42.100Z,8.60
2022-11-22T09:50:43.761Z,8.70
2022-11-22T09:55:52.609Z,8.60
2022-11-22T10:01:01.563Z,8.50
2022-11-22T10:06:10.141Z,8.50
2022-11-22T10:11:23.662Z,8.50
2022-11-22T10:16:35.271Z,8.50
2022-11-22T10:21:36.934Z,8.40
2022-11-22T10:26:39.481Z,8.40
2022-11-22T10:31:43.930Z,8.40
2022-11-22T10:36:56.389Z,8.40
2022-11-22T10:42:28.574Z,8.40
2022-11-22T10:47:39.175Z,8.40
2022-11-22T10:52:59.951Z,8.40
2022-11-22T10:58:17.089Z,8.40
2022-11-22T11:03:28.703Z,8.40
2022-11-22T11:09:12.287Z,8.40
2022-11-22T11:14:39.820Z,8.40
2022-11-22T11:19:44.531Z,8.40
2022-11-22T11:24:48.439Z,8.40
2022-11-22T11:29:52.363Z,8.40
2022-11-22T11:35:06.485Z,8.40
2022-11-22T11:40:32.132Z,8.40
2022-11-22T11:45:33.817Z,8.50
2022-11-22T11:50:35.881Z,8.50
2022-11-22T11:55:37.710Z,8.50
2022-11-22T12:00:40.395Z,8.70
2022-11-22T12:05:42.612Z,8.60
2022-11-22T12:10:49.754Z,8.70
2022-11-22T12:16:01.430Z,8.70
2022-11-22T12:21:32.833Z,8.60
2022-11-22T12:26:34.494Z,8.70
2022-11-22T12:31:57.587Z,8.70
2022-11-22T12:37:07.695Z,8.70
2022-11-22T12:42:18.671Z,8.70
2022-11-22T12:47:29.807Z,8.70
2022-11-22T12:52:41.643Z,8.50
2022-11-22T12:58:20.830Z,8.60
2022-11-22T13:03:31.108Z,8.60
2022-11-22T13:08:52.886Z,8.50
2022-11-22T13:14:21.268Z,8.70
2022-11-22T13:19:26.621Z,8.70
2022-11-22T13:24:28.737Z,8.90
2022-11-22T13:29:33.330Z,9.10
2022-11-22T13:34:37.695Z,9.10
2022-11-22T13:39:47.394Z,9.10
2022-11-22T13:44:52.022Z,9.20
2022-11-22T13:49:53.959Z,9.20
2022-11-22T13:55:01.305Z,9.20
2022-11-22T14:00:11.873Z,9.20
2022-11-22T14:05:38.031Z,9.20
2022-11-22T14:11:03.137Z,9.20
2022-11-22T14:16:26.367Z,9.40
2022-11-22T14:21:28.024Z,9.20
2022-11-22T14:26:54.591Z,9.40
2022-11-22T14:32:15.670Z,9.40
2022-11-22T14:37:17.334Z,9.30
2022-11-22T14:42:37.435Z,9.30
2022-11-22T14:47:45.554Z,9.30
2022-11-22T14:52:48.292Z,9.30
2022-11-22T14:57:58.672Z,9.30
2022-11-22T15:03:39.351Z,9.20
2022-11-22T15:09:20.793Z,9.20
2022-11-22T15:14:50.599Z,9.20
2022-11-22T15:57:48.714Z,9.50
2022-11-22T16:02:56.522Z,9.40
2022-11-22T16:08:00.757Z,9.40
2022-11-22T16:13:20.643Z,9.50
2022-11-22T16:18:27.837Z,9.50
2022-11-22T16:23:34.294Z,9.50
2022-11-22T16:28:37.461Z,9.50
2022-11-22T16:33:39.119Z,9.60
2022-11-22T16:38:43.285Z,9.70
2022-11-22T16:43:45.628Z,9.90
2022-11-22T16:48:47.956Z,9.80
2022-11-22T16:53:51.234Z,9.70
2022-11-22T16:58:54.651Z,9.80
2022-11-22T17:03:57.226Z,9.80
2022-11-22T17:09:00.167Z,9.80
2022-11-22T17:14:01.885Z,9.40
2022-11-22T17:19:03.562Z,8.90
2022-11-22T17:24:13.923Z,8.60
2022-11-22T17:29:35.259Z,8.60
2022-11-22T17:34:37.336Z,8.60
2022-11-22T17:39:39.301Z,8.70
2022-11-22T17:44:40.972Z,8.60
2022-11-22T17:49:42.797Z,8.60
2022-11-22T17:54:44.527Z,8.60
2022-11-22T17:59:46.220Z,8.60
2022-11-22T18:04:47.921Z,8.60
2022-11-22T18:09:50.296Z,8.50
2022-11-22T18:14:52.001Z,8.50
2022-11-22T18:19:53.681Z,8.50
2022-11-22T18:24:55.555Z,8.50
2022-11-22T18:29:57.393Z,8.50
2022-11-22T18:34:59.292Z,8.50
2022-11-22T18:40:01.034Z,8.50
2022-11-22T18:45:02.728Z,8.50
2022-11-22T18:50:06.366Z,8.50
2022-11-22T18:55:11.208Z,8.50
2022-11-22T19:00:13.541Z,8.50
2022-11-22T19:05:15.416Z,8.50
2022-11-22T19:10:17.174Z,8.60
2022-11-22T19:15:18.887Z,8.50
2022-11-22T19:20:47.381Z,8.60
2022-11-22T19:25:42.265Z,8.50
2022-11-22T19:30:44.394Z,8.50
2022-11-22T19:35:56.853Z,8.50
2022-11-22T19:40:58.565Z,8.40
2022-11-22T19:46:00.639Z,8.40
2022-11-22T19:51:10.204Z,8.40
2022-11-22T19:56:19.171Z,8.40
2022-11-22T20:01:23.492Z,8.40
2022-11-22T20:06:26.532Z,8.30
2022-11-22T20:11:28.228Z,8.30
2022-11-22T20:16:31.427Z,8.30
2022-11-22T20:21:34.322Z,8.30
2022-11-22T20:26:36.171Z,8.20
2022-11-22T20:31:37.930Z,8.30
2022-11-22T20:36:39.715Z,8.30
2022-11-22T20:41:41.502Z,8.40
2022-11-22T20:46:43.243Z,8.30
2022-11-22T20:51:44.993Z,8.20
2022-11-22T20:56:46.661Z,8.10
2022-11-22T21:01:48.407Z,8.00
2022-11-22T21:06:50.103Z,8.10
2022-11-22T21:11:51.855Z,8.20
2022-11-22T21:16:53.652Z,7.90
2022-11-22T21:21:55.409Z,7.90
2022-11-22T21:26:57.100Z,8.00
2022-11-22T21:31:58.817Z,7.90
2022-11-22T21:37:00.543Z,7.90
2022-11-22T21:42:02.326Z,8.00
2022-11-22T21:47:04.085Z,7.80
2022-11-22T21:52:05.749Z,7.70
2022-11-22T21:57:10.510Z,7.50
2022-11-22T22:02:12.220Z,7.80
2022-11-22T22:07:36.500Z,7.60
2022-11-22T22:12:35.677Z,7.30
2022-11-22T22:17:37.553Z,7.30
2022-11-22T22:22:39.370Z,7.30
2022-11-22T22:27:41.436Z,7.20
2022-11-22T22:32:43.195Z,7.30
2022-11-22T22:37:44.929Z,7.40
2022-11-22T22:42:46.627Z,7.30
2022-11-22T22:47:48.326Z,7.10
2022-11-22T22:52:50.032Z,7.20
2022-11-22T22:57:51.805Z,7.10
2022-11-22T23:02:55.236Z,6.80
2022-11-22T23:07:57.058Z,6.70
2022-11-22T23:12:59.528Z,6.70
2022-11-22T23:18:01.339Z,6.50
2022-11-22T23:23:03.120Z,6.60
2022-11-22T23:28:04.908Z,6.30
2022-11-22T23:33:06.577Z,6.20
2022-11-22T23:38:08.284Z,6.40
2022-11-22T23:43:09.965Z,6.20
2022-11-22T23:48:11.755Z,6.10
2022-11-22T23:53:13.426Z,6.20
2022-11-22T23:58:15.100Z,6.30
